createdAt,value
2019-06-07T00:01:49.265Z,16.22
2019-06-07T00:04:21.294Z,15.80
2019-06-07T00:06:50.011Z,15.82
2019-06-07T00:09:22.520Z,15.71
2019-06-07T00:11:50.567Z,15.80
2019-06-07T00:14:21.170Z,16.06
2019-06-07T00:16:52.000Z,16.00
2019-06-07T00:19:21.861Z,16.13
2019-06-07T00:22:16.527Z,16.03
2019-06-07T00:24:22.880Z,16.20
2019-06-07T00:26:58.969Z,16.19
2019-06-07T00:29:23.441Z,16.11
2019-06-07T00:31:52.989Z,16.23
2019-06-07T00:34:23.208Z,16.09
2019-06-07T00:36:53.545Z,16.04
2019-06-07T00:39:25.881Z,16.79
2019-06-07T00:41:54.065Z,16.57
2019-06-07T00:44:23.743Z,16.30
2019-06-07T00:46:54.077Z,16.98
2019-06-07T00:49:40.039Z,15.94
2019-06-07T00:51:54.631Z,15.86
2019-06-07T00:54:25.083Z,16.39
2019-06-07T00:56:54.729Z,15.96
2019-06-07T00:59:29.604Z,15.89
2019-06-07T01:01:56.522Z,16.11
2019-06-07T01:04:27.201Z,16.12
2019-06-07T01:06:56.669Z,16.27
2019-06-07T01:09:27.043Z,15.86
2019-06-07T01:11:56.418Z,16.04
2019-06-07T01:14:28.510Z,15.87
2019-06-07T01:17:22.208Z,15.94
2019-06-07T01:19:29.431Z,15.94
2019-06-07T01:21:58.979Z,15.93
2019-06-07T01:24:28.358Z,16.15
2019-06-07T01:26:57.775Z,16.01
2019-06-07T01:29:30.899Z,16.10
2019-06-07T01:31:59.315Z,15.95
2019-06-07T01:34:29.084Z,15.56
2019-06-07T01:36:59.563Z,15.46
2019-06-07T01:39:31.486Z,15.39
2019-06-07T01:42:00.188Z,15.82
2019-06-07T01:44:31.017Z,15.54
2019-06-07T01:47:01.984Z,15.43
2019-06-07T01:49:31.450Z,15.51
2019-06-07T01:52:00.913Z,15.71
2019-06-07T01:57:01.396Z,15.57
2019-06-07T01:59:31.834Z,15.63
2019-06-07T02:02:01.925Z,15.72
2019-06-07T02:04:33.161Z,15.54
2019-06-07T02:07:02.603Z,15.68
2019-06-07T02:09:32.378Z,15.52
2019-06-07T02:12:01.903Z,15.69
2019-06-07T02:14:33.373Z,15.73
2019-06-07T02:17:03.115Z,15.50
2019-06-07T02:19:33.390Z,15.57
2019-06-07T02:22:03.209Z,15.68
2019-06-07T02:24:35.791Z,17.42
2019-06-07T02:27:04.067Z,17.37
2019-06-07T02:29:33.861Z,16.37
2019-06-07T02:32:03.670Z,15.45
2019-06-07T02:34:38.638Z,15.45
2019-06-07T02:37:05.314Z,15.37
2019-06-07T02:39:40.494Z,15.29
2019-06-07T02:42:06.561Z,15.36
2019-06-07T02:44:39.440Z,15.54
2019-06-07T02:47:07.118Z,15.78
2019-06-07T02:49:41.179Z,16.00
2019-06-07T02:52:07.751Z,15.46
2019-06-07T02:54:40.362Z,15.65
2019-06-07T02:57:08.372Z,17.42
2019-06-07T03:00:03.728Z,16.57
2019-06-07T03:02:09.177Z,15.63
2019-06-07T03:04:42.357Z,15.59
2019-06-07T03:07:12.477Z,15.39
2019-06-07T03:09:42.924Z,15.55
2019-06-07T03:12:13.641Z,15.33
2019-06-07T03:14:44.492Z,15.36
2019-06-07T03:17:37.560Z,15.36
2019-06-07T03:20:08.173Z,15.38
2019-06-07T03:22:41.604Z,15.77
2019-06-07T03:25:12.574Z,15.69
2019-06-07T03:27:49.578Z,15.59
2019-06-07T03:32:48.037Z,15.63
2019-06-07T03:35:16.480Z,15.78
2019-06-07T03:37:45.900Z,15.60
2019-06-07T03:40:16.307Z,15.67
2019-06-07T03:42:45.706Z,15.85
2019-06-07T03:45:15.240Z,15.83
2019-06-07T03:47:44.620Z,15.78
2019-06-07T03:50:14.185Z,16.07
2019-06-07T03:52:43.577Z,16.60
2019-06-07T03:55:13.101Z,16.04
2019-06-07T04:00:14.009Z,16.16
2019-06-07T04:02:43.422Z,16.02
2019-06-07T04:05:13.139Z,16.34
2019-06-07T04:07:44.334Z,16.50
2019-06-07T04:10:13.615Z,16.52
2019-06-07T04:12:44.196Z,16.30
2019-06-07T04:15:14.372Z,16.23
2019-06-07T04:18:00.867Z,16.41
2019-06-07T04:20:14.890Z,16.39
2019-06-07T04:22:44.307Z,16.65
2019-06-07T04:25:14.126Z,16.84
2019-06-07T04:27:43.524Z,16.87
2019-06-07T04:30:13.700Z,16.84
2019-06-07T04:32:44.983Z,16.92
2019-06-07T04:35:15.700Z,16.80
2019-06-07T04:37:45.393Z,17.35
2019-06-07T04:40:14.876Z,17.22
2019-06-07T04:42:45.929Z,17.45
2019-06-07T04:45:33.146Z,17.40
2019-06-07T04:47:48.258Z,17.54
2019-06-07T04:50:18.440Z,17.89
2019-06-07T04:52:47.910Z,17.80
2019-06-07T04:55:17.289Z,17.59
2019-06-07T04:57:46.668Z,17.61
2019-06-07T05:00:49.682Z,17.32
2019-06-07T05:02:50.202Z,17.55
2019-06-07T05:05:19.588Z,17.51
2019-06-07T05:07:48.969Z,17.59
2019-06-07T05:10:18.363Z,17.79
2019-06-07T05:12:47.745Z,17.97
2019-06-07T05:15:17.216Z,17.60
2019-06-07T05:17:46.971Z,17.96
2019-06-07T05:20:17.337Z,18.07
2019-06-07T05:22:47.749Z,18.16
2019-06-07T05:25:17.918Z,18.41
2019-06-07T05:27:47.962Z,18.77
2019-06-07T05:33:04.121Z,18.94
2019-06-07T05:35:35.451Z,19.04
2019-06-07T05:38:05.677Z,19.20
2019-06-07T05:40:42.916Z,19.14
2019-06-07T05:43:24.791Z,19.41
2019-06-07T05:45:54.208Z,19.52
2019-06-07T05:48:24.073Z,19.21
2019-06-07T05:50:57.842Z,19.69
2019-06-07T05:53:25.396Z,19.81
2019-06-07T05:55:56.705Z,19.58
2019-06-07T05:58:26.097Z,20.24
2019-06-07T06:00:55.490Z,19.75
2019-06-07T06:03:24.878Z,20.91
2019-06-07T06:05:55.655Z,20.57
2019-06-07T06:08:25.540Z,20.77
2019-06-07T06:10:55.854Z,20.78
2019-06-07T06:13:25.239Z,20.98
2019-06-07T06:16:01.701Z,20.79
2019-06-07T06:18:25.797Z,20.10
2019-06-07T06:21:15.461Z,21.62
2019-06-07T06:23:26.342Z,21.35
2019-06-07T06:25:57.331Z,21.89
2019-06-07T06:28:27.323Z,21.71
2019-06-07T06:30:56.793Z,22.01
2019-06-07T06:33:33.415Z,22.06
2019-06-07T06:35:57.413Z,22.82
2019-06-07T06:38:26.815Z,22.94
2019-06-07T06:41:14.767Z,24.26
2019-06-07T06:43:27.435Z,23.29
2019-06-07T06:45:56.892Z,23.64
2019-06-07T06:48:26.296Z,24.86
2019-06-07T06:50:56.229Z,23.63
2019-06-07T06:53:26.551Z,22.32
2019-06-07T06:55:56.709Z,21.92
2019-06-07T06:58:27.075Z,24.93
2019-06-07T07:01:06.391Z,24.84
2019-06-07T07:03:56.493Z,22.69
2019-06-07T07:06:23.265Z,24.19
2019-06-07T07:08:30.816Z,25.07
2019-06-07T07:11:00.227Z,25.16
2019-06-07T07:13:29.570Z,25.22
2019-06-07T07:15:58.959Z,24.14
2019-06-07T07:18:29.010Z,24.73
2019-06-07T07:20:59.272Z,25.38
2019-06-07T07:23:29.403Z,26.36
2019-06-07T07:26:00.325Z,27.14
2019-06-07T07:28:29.992Z,25.84
2019-06-07T07:31:00.012Z,26.61
2019-06-07T07:34:20.877Z,26.82
2019-06-07T07:36:19.341Z,26.37
2019-06-07T07:38:31.687Z,25.98
2019-06-07T07:41:13.904Z,27.42
2019-06-07T07:43:32.309Z,26.33
2019-06-07T07:46:03.559Z,27.12
2019-06-07T07:48:32.849Z,26.67
2019-06-07T07:51:03.353Z,27.32
2019-06-07T07:53:48.374Z,27.50
2019-06-07T07:56:04.427Z,27.26
2019-06-07T07:58:33.923Z,28.25
2019-06-07T08:01:10.135Z,26.02
2019-06-07T08:03:34.444Z,26.51
2019-06-07T08:06:03.901Z,26.86
2019-06-07T08:08:33.665Z,26.26
2019-06-07T08:11:03.750Z,27.43
2019-06-07T08:13:33.853Z,27.82
2019-06-07T08:16:10.628Z,28.05
2019-06-07T08:18:34.450Z,28.79
2019-06-07T08:21:21.376Z,28.43
2019-06-07T08:23:35.264Z,28.19
2019-06-07T08:26:04.939Z,28.04
2019-06-07T08:28:35.289Z,27.29
2019-06-07T08:31:07.235Z,26.45
2019-06-07T08:33:35.777Z,27.68
2019-06-07T08:36:19.454Z,27.97
2019-06-07T08:38:47.583Z,28.39
2019-06-07T08:41:11.798Z,29.24
2019-06-07T08:43:39.072Z,29.16
2019-06-07T08:46:08.480Z,29.60
2019-06-07T08:48:37.853Z,29.08
2019-06-07T08:51:08.461Z,28.65
2019-06-07T08:53:38.233Z,28.95
2019-06-07T08:56:11.055Z,29.51
2019-06-07T08:58:38.289Z,30.73
2019-06-07T09:01:09.092Z,29.00
2019-06-07T09:03:38.841Z,29.43
2019-06-07T09:06:53.890Z,29.41
2019-06-07T09:08:39.935Z,28.68
2019-06-07T09:11:11.086Z,28.15
2019-06-07T09:13:39.754Z,27.87
2019-06-07T09:16:10.290Z,29.04
2019-06-07T09:18:44.477Z,29.18
2019-06-07T09:21:11.785Z,29.38
2019-06-07T09:23:41.137Z,28.48
2019-06-07T09:26:18.047Z,28.84
2019-06-07T09:28:42.423Z,28.57
2019-06-07T09:31:12.684Z,29.40
2019-06-07T09:33:42.372Z,29.44
2019-06-07T09:36:13.160Z,29.88
2019-06-07T09:38:45.103Z,30.02
2019-06-07T09:41:14.749Z,30.53
2019-06-07T09:44:01.898Z,30.71
2019-06-07T09:46:16.376Z,28.60
2019-06-07T09:49:14.243Z,27.63
2019-06-07T09:51:20.240Z,28.76
2019-06-07T09:53:47.579Z,28.41
2019-06-07T09:56:16.821Z,28.64
2019-06-07T09:58:52.566Z,29.37
2019-06-07T10:01:17.377Z,30.20
2019-06-07T10:03:46.756Z,29.43
2019-06-07T10:06:16.200Z,29.16
2019-06-07T10:11:16.738Z,29.06
2019-06-07T10:13:46.242Z,29.37
2019-06-07T10:16:15.624Z,28.34
2019-06-07T10:18:45.589Z,29.69
2019-06-07T10:21:15.845Z,31.71
2019-06-07T10:23:45.989Z,29.72
2019-06-07T10:26:16.408Z,29.26
2019-06-07T10:28:46.777Z,29.38
2019-06-07T10:31:16.636Z,31.25
2019-06-07T10:33:46.879Z,30.88
2019-06-07T10:36:17.070Z,29.33
2019-06-07T10:38:47.535Z,29.03
2019-06-07T10:41:17.596Z,29.40
2019-06-07T10:43:47.799Z,29.17
2019-06-07T10:46:18.064Z,30.24
2019-06-07T10:48:48.310Z,30.44
2019-06-07T10:51:18.504Z,30.41
2019-06-07T10:53:48.792Z,30.78
2019-06-07T10:56:19.013Z,32.28
2019-06-07T10:58:49.395Z,31.23
2019-06-07T11:01:19.509Z,32.10
2019-06-07T11:03:49.820Z,32.20
2019-06-07T11:06:20.020Z,32.40
2019-06-07T11:08:51.289Z,30.44
2019-06-07T11:11:20.673Z,30.56
2019-06-07T11:13:52.585Z,30.51
2019-06-07T11:16:22.069Z,30.16
2019-06-07T11:18:51.549Z,31.62
2019-06-07T11:21:21.565Z,30.97
2019-06-07T11:23:51.629Z,30.49
2019-06-07T11:26:21.737Z,31.52
2019-06-07T11:28:52.018Z,31.95
2019-06-07T11:31:22.146Z,30.43
2019-06-07T11:33:52.642Z,31.52
2019-06-07T11:36:22.443Z,31.57
2019-06-07T11:38:52.713Z,30.81
2019-06-07T11:41:22.927Z,31.17
2019-06-07T11:43:53.173Z,30.49
2019-06-07T11:46:23.356Z,29.90
2019-06-07T11:48:53.757Z,30.28
2019-06-07T11:51:23.957Z,29.38
2019-06-07T11:53:54.288Z,29.76
2019-06-07T11:56:24.386Z,30.16
2019-06-07T11:58:54.985Z,31.49
2019-06-07T12:01:24.953Z,31.87
2019-06-07T12:03:58.263Z,30.48
2019-06-07T12:06:26.319Z,31.05
2019-06-07T12:08:55.693Z,30.17
2019-06-07T12:11:26.211Z,29.72
2019-06-07T12:13:56.262Z,30.75
2019-06-07T12:16:26.743Z,30.87
2019-06-07T12:18:56.699Z,31.47
2019-06-07T12:21:26.888Z,31.70
2019-06-07T12:23:57.233Z,30.63
2019-06-07T12:26:26.921Z,30.27
2019-06-07T12:28:56.313Z,30.79
2019-06-07T12:31:25.777Z,30.57
2019-06-07T12:33:55.160Z,31.00
2019-06-07T12:36:24.625Z,30.15
2019-06-07T12:38:54.050Z,30.42
2019-06-07T12:41:23.436Z,31.18
2019-06-07T12:43:53.176Z,32.25
2019-06-07T12:46:27.966Z,30.77
2019-06-07T12:48:53.663Z,31.15
2019-06-07T12:51:23.484Z,30.49
2019-06-07T12:53:53.851Z,30.10
2019-06-07T12:56:24.232Z,30.18
2019-06-07T12:58:54.680Z,30.72
2019-06-07T13:01:24.876Z,29.83
2019-06-07T13:03:54.452Z,30.33
2019-06-07T13:06:23.791Z,30.89
2019-06-07T13:08:53.228Z,30.52
2019-06-07T13:11:28.190Z,29.64
2019-06-07T13:13:53.687Z,30.16
2019-06-07T13:16:24.248Z,29.09
2019-06-07T13:18:53.694Z,30.96
2019-06-07T13:21:24.500Z,31.62
2019-06-07T13:23:54.154Z,31.53
2019-06-07T13:26:24.925Z,30.74
2019-06-07T13:28:54.392Z,30.73
2019-06-07T13:31:25.125Z,31.87
2019-06-07T13:33:54.683Z,31.79
2019-06-07T13:36:24.447Z,31.52
2019-06-07T13:38:54.036Z,30.70
2019-06-07T13:41:36.553Z,30.74
2019-06-07T13:43:54.498Z,30.55
2019-06-07T13:46:25.176Z,30.67
2019-06-07T13:48:54.863Z,30.22
2019-06-07T13:51:25.192Z,29.82
2019-06-07T13:53:55.328Z,29.94
2019-06-07T13:56:25.931Z,31.18
2019-06-07T13:58:55.467Z,31.60
2019-06-07T14:01:24.843Z,31.97
2019-06-07T14:03:54.253Z,32.19
2019-06-07T14:06:25.147Z,32.24
2019-06-07T14:08:54.636Z,32.65
2019-06-07T14:11:24.021Z,32.17
2019-06-07T14:13:53.394Z,32.58
2019-06-07T14:16:24.279Z,31.32
2019-06-07T14:18:53.739Z,31.62
2019-06-07T14:21:24.505Z,30.74
2019-06-07T14:23:53.971Z,30.49
2019-06-07T14:26:23.619Z,30.85
2019-06-07T14:28:52.992Z,30.85
2019-06-07T14:31:22.391Z,31.00
2019-06-07T14:33:51.864Z,29.86
2019-06-07T14:36:22.622Z,29.89
2019-06-07T14:38:52.160Z,29.42
2019-06-07T14:41:23.108Z,29.52
2019-06-07T14:43:52.593Z,30.10
2019-06-07T14:46:21.988Z,30.88
2019-06-07T14:48:51.384Z,30.18
2019-06-07T14:51:20.775Z,29.67
2019-06-07T14:53:50.166Z,29.58
2019-06-07T14:56:19.683Z,29.78
2019-06-07T14:58:49.082Z,29.66
2019-06-07T15:01:18.464Z,29.62
2019-06-07T15:03:47.846Z,29.68
2019-06-07T15:06:18.218Z,29.30
2019-06-07T15:08:51.237Z,29.34
2019-06-07T15:11:18.656Z,29.74
2019-06-07T15:13:48.024Z,29.89
2019-06-07T15:16:17.452Z,29.42
2019-06-07T15:18:48.852Z,29.91
2019-06-07T15:21:18.237Z,29.09
2019-06-07T15:23:47.616Z,28.90
2019-06-07T15:26:17.005Z,29.30
2019-06-07T15:28:46.383Z,29.05
2019-06-07T15:31:15.756Z,29.09
2019-06-07T15:33:45.144Z,29.17
2019-06-07T15:36:15.119Z,28.95
2019-06-07T15:38:45.359Z,28.85
2019-06-07T15:41:15.597Z,28.71
2019-06-07T15:43:45.793Z,29.22
2019-06-07T15:46:16.096Z,29.33
2019-06-07T15:48:46.307Z,28.79
2019-06-07T15:51:16.643Z,28.87
2019-06-07T15:53:46.787Z,28.61
2019-06-07T15:56:17.267Z,28.90
2019-06-07T15:58:47.216Z,28.82
2019-06-07T16:01:17.584Z,28.56
2019-06-07T16:03:47.611Z,28.64
2019-06-07T16:06:19.671Z,28.42
2019-06-07T16:08:48.432Z,28.82
2019-06-07T16:11:18.327Z,28.65
2019-06-07T16:13:48.659Z,28.67
2019-06-07T16:16:18.951Z,28.33
2019-06-07T16:18:49.169Z,28.56
2019-06-07T16:21:19.544Z,28.78
2019-06-07T16:23:49.689Z,28.55
2019-06-07T16:26:19.893Z,28.69
2019-06-07T16:28:50.195Z,28.49
2019-06-07T16:31:20.419Z,29.09
2019-06-07T16:33:50.624Z,28.63
2019-06-07T16:36:20.948Z,28.30
2019-06-07T16:38:51.230Z,28.40
2019-06-07T16:41:21.449Z,28.31
2019-06-07T16:43:51.648Z,28.26
2019-06-07T16:46:23.256Z,28.18
2019-06-07T16:48:52.634Z,28.03
2019-06-07T16:54:01.050Z,27.90
2019-06-07T16:56:30.498Z,28.22
2019-06-07T16:58:59.962Z,27.81
2019-06-07T17:01:29.357Z,28.25
2019-06-07T17:03:58.747Z,28.00
2019-06-07T17:06:28.212Z,27.66
2019-06-07T17:08:57.589Z,27.79
2019-06-07T17:11:26.989Z,27.51
2019-06-07T17:13:56.368Z,27.78
2019-06-07T17:16:25.792Z,27.84
2019-06-07T17:18:55.172Z,27.65
2019-06-07T17:21:25.121Z,27.61
2019-06-07T17:23:55.472Z,27.26
2019-06-07T17:26:25.569Z,27.41
2019-06-07T17:28:55.783Z,27.41
2019-06-07T17:31:25.972Z,27.35
2019-06-07T17:33:56.043Z,27.49
2019-06-07T17:36:26.331Z,27.19
2019-06-07T17:38:56.445Z,27.05
2019-06-07T17:41:26.758Z,27.09
2019-06-07T17:44:00.291Z,27.00
2019-06-07T17:46:28.026Z,26.64
2019-06-07T17:48:57.422Z,26.59
2019-06-07T17:51:27.708Z,26.49
2019-06-07T17:53:57.682Z,26.19
2019-06-07T17:56:27.790Z,25.28
2019-06-07T17:58:58.152Z,25.35
2019-06-07T18:01:40.666Z,25.08
2019-06-07T18:03:59.274Z,24.69
2019-06-07T18:06:29.580Z,24.65
2019-06-07T18:09:00.203Z,24.45
2019-06-07T18:11:29.645Z,24.17
2019-06-07T18:14:10.012Z,24.00
2019-06-07T18:16:30.543Z,23.40
2019-06-07T18:18:59.931Z,23.68
2019-06-07T18:21:30.272Z,23.81
2019-06-07T18:24:00.227Z,23.77
2019-06-07T18:26:30.654Z,23.53
2019-06-07T18:29:00.803Z,23.38
2019-06-07T18:31:31.103Z,23.17
2019-06-07T18:34:01.492Z,23.15
2019-06-07T18:36:31.604Z,23.24
2019-06-07T18:39:01.753Z,23.43
2019-06-07T18:41:32.751Z,23.28
2019-06-07T18:44:02.250Z,22.94
2019-06-07T18:46:32.888Z,22.83
2019-06-07T18:49:02.663Z,22.89
2019-06-07T18:51:32.919Z,22.82
2019-06-07T18:54:03.167Z,22.92
2019-06-07T18:56:34.011Z,22.87
2019-06-07T18:59:03.764Z,22.94
2019-06-07T19:01:34.002Z,22.07
2019-06-07T19:04:04.293Z,22.37
2019-06-07T19:06:34.477Z,22.57
2019-06-07T19:09:06.056Z,22.90
2019-06-07T19:11:35.502Z,22.67
2019-06-07T19:14:06.913Z,22.15
2019-06-07T19:16:36.288Z,22.04
2019-06-07T19:19:05.798Z,21.90
2019-06-07T19:21:36.009Z,21.90
2019-06-07T19:24:06.165Z,22.37
2019-06-07T19:26:36.535Z,22.56
2019-06-07T19:29:06.732Z,22.13
2019-06-07T19:31:36.932Z,21.91
2019-06-07T19:34:07.168Z,21.77
2019-06-07T19:36:48.258Z,21.73
2019-06-07T19:39:08.728Z,21.62
2019-06-07T19:41:38.115Z,21.09
2019-06-07T19:44:08.194Z,20.80
2019-06-07T19:46:38.445Z,20.90
2019-06-07T19:49:08.604Z,21.01
2019-06-07T19:51:38.940Z,20.77
2019-06-07T19:54:10.150Z,20.58
2019-06-07T19:56:39.552Z,20.49
2019-06-07T19:59:09.677Z,20.11
2019-06-07T20:01:39.968Z,20.38
2019-06-07T20:04:10.194Z,20.34
2019-06-07T20:06:40.359Z,20.31
2019-06-07T20:09:10.375Z,20.38
2019-06-07T20:11:40.573Z,20.35
2019-06-07T20:14:10.818Z,20.53
2019-06-07T20:16:40.589Z,20.45
2019-06-07T20:19:10.760Z,20.33
2019-06-07T20:21:41.120Z,20.03
2019-06-07T20:24:24.730Z,20.06
2019-06-07T20:26:42.078Z,20.07
2019-06-07T20:29:25.600Z,20.67
2019-06-07T20:31:43.194Z,20.21
2019-06-07T20:34:13.619Z,20.11
2019-06-07T20:36:45.840Z,20.03
2019-06-07T20:39:14.102Z,20.14
2019-06-07T20:41:43.733Z,19.92
2019-06-07T20:44:13.828Z,19.92
2019-06-07T20:46:43.834Z,19.91
2019-06-07T20:49:14.050Z,19.61
2019-06-07T20:51:44.321Z,19.21
2019-06-07T20:54:14.825Z,19.55
2019-06-07T20:56:44.770Z,19.37
2019-06-07T20:59:15.011Z,19.50
2019-06-07T21:01:45.315Z,19.53
2019-06-07T21:04:15.418Z,19.53
2019-06-07T21:06:45.548Z,19.45
2019-06-07T21:09:15.644Z,19.58
2019-06-07T21:11:45.926Z,19.80
2019-06-07T21:14:15.954Z,19.48
2019-06-07T21:16:46.328Z,19.39
2019-06-07T21:19:16.559Z,19.23
2019-06-07T21:21:46.785Z,19.19
2019-06-07T21:24:17.045Z,19.24
2019-06-07T21:26:47.356Z,19.23
2019-06-07T21:29:17.533Z,19.23
2019-06-07T21:31:48.052Z,19.11
2019-06-07T21:34:17.954Z,19.23
2019-06-07T21:36:48.418Z,19.10
2019-06-07T21:39:18.401Z,18.81
2019-06-07T21:41:48.698Z,18.85
2019-06-07T21:44:18.867Z,19.10
2019-06-07T21:46:49.185Z,18.92
2019-06-07T21:49:19.361Z,18.90
2019-06-07T21:51:49.709Z,18.96
2019-06-07T21:54:19.822Z,18.95
2019-06-07T21:56:50.281Z,18.95
2019-06-07T21:59:20.367Z,18.81
2019-06-07T22:01:51.076Z,18.65
2019-06-07T22:04:20.899Z,18.70
2019-06-07T22:06:51.972Z,18.91
2019-06-07T22:09:22.216Z,18.67
2019-06-07T22:11:51.664Z,18.67
2019-06-07T22:14:21.894Z,18.46
2019-06-07T22:16:52.168Z,18.64
2019-06-07T22:19:22.424Z,18.72
2019-06-07T22:22:02.099Z,18.79
2019-06-07T22:24:23.884Z,18.57
2019-06-07T22:26:53.278Z,18.87
2019-06-07T22:29:23.407Z,18.75
2019-06-07T22:31:53.763Z,18.69
2019-06-07T22:34:23.976Z,18.70
2019-06-07T22:36:54.249Z,18.53
2019-06-07T22:39:24.509Z,18.63
2019-06-07T22:41:54.722Z,18.35
2019-06-07T22:44:24.894Z,18.26
2019-06-07T22:46:55.261Z,18.34
2019-06-07T22:49:25.490Z,18.40
2019-06-07T22:52:08.224Z,18.21
2019-06-07T22:54:26.819Z,17.91
2019-06-07T22:57:00.567Z,18.06
2019-06-07T22:59:30.971Z,18.78
2019-06-07T23:02:00.349Z,18.20
2019-06-07T23:04:29.835Z,18.12
2019-06-07T23:06:59.216Z,18.01
2019-06-07T23:09:28.605Z,17.91
2019-06-07T23:11:57.982Z,18.14
2019-06-07T23:14:27.970Z,17.66
2019-06-07T23:16:58.273Z,17.86
2019-06-07T23:19:28.431Z,18.12
2019-06-07T23:21:58.774Z,17.57
2019-06-07T23:24:29.098Z,17.48
2019-06-07T23:26:59.328Z,17.66
2019-06-07T23:29:29.570Z,18.36
2019-06-07T23:31:59.911Z,17.75
2019-06-07T23:34:29.992Z,17.23
2019-06-07T23:37:00.424Z,17.53
2019-06-07T23:39:30.585Z,17.34
2019-06-07T23:42:00.717Z,18.10
2019-06-07T23:44:30.814Z,17.54
2019-06-07T23:47:10.821Z,17.33
2019-06-07T23:49:32.671Z,17.74
2019-06-07T23:52:02.070Z,18.36
2019-06-07T23:54:31.733Z,17.84
2019-06-07T23:57:02.123Z,18.03
2019-06-07T23:59:32.390Z,17.84
